sensor_id;sensor_type;location;lat;lon;timestamp;P1;durP1;ratioP1;P2;durP2;ratioP2
43807;SDS011;29438;50.664;10.098;2023-04-07T00:01:05;8.07;;;3.22;;
43807;SDS011;29438;50.664;10.098;2023-04-07T00:03:30;10.25;;;3.30;;
43807;SDS011;29438;50.664;10.098;2023-04-07T00:05:56;8.02;;;3.33;;
43807;SDS011;29438;50.664;10.098;2023-04-07T00:08:21;8.55;;;3.92;;
43807;SDS011;29438;50.664;10.098;2023-04-07T00:10:47;9.95;;;3.45;;
43807;SDS011;29438;50.664;10.098;2023-04-07T00:13:12;9.75;;;3.42;;
43807;SDS011;29438;50.664;10.098;2023-04-07T00:15:38;7.93;;;3.45;;
43807;SDS011;29438;50.664;10.098;2023-04-07T00:18:03;9.60;;;3.95;;
43807;SDS011;29438;50.664;10.098;2023-04-07T00:20:29;8.13;;;3.30;;
43807;SDS011;29438;50.664;10.098;2023-04-07T00:22:54;12.50;;;3.55;;
43807;SDS011;29438;50.664;10.098;2023-04-07T00:25:20;7.68;;;3.42;;
43807;SDS011;29438;50.664;10.098;2023-04-07T00:27:45;9.48;;;3.83;;
43807;SDS011;29438;50.664;10.098;2023-04-07T00:30:11;8.07;;;3.50;;
43807;SDS011;29438;50.664;10.098;2023-04-07T00:32:36;8.13;;;3.55;;
43807;SDS011;29438;50.664;10.098;2023-04-07T00:35:02;11.02;;;3.75;;
43807;SDS011;29438;50.664;10.098;2023-04-07T00:37:28;7.00;;;3.00;;
43807;SDS011;29438;50.664;10.098;2023-04-07T00:39:53;8.50;;;3.63;;
43807;SDS011;29438;50.664;10.098;2023-04-07T00:42:20;11.18;;;3.92;;
43807;SDS011;29438;50.664;10.098;2023-04-07T00:44:45;9.80;;;3.60;;
43807;SDS011;29438;50.664;10.098;2023-04-07T00:47:11;9.00;;;3.92;;
43807;SDS011;29438;50.664;10.098;2023-04-07T00:49:36;8.13;;;3.63;;
43807;SDS011;29438;50.664;10.098;2023-04-07T00:52:02;11.55;;;3.80;;
43807;SDS011;29438;50.664;10.098;2023-04-07T00:54:30;10.05;;;3.97;;
43807;SDS011;29438;50.664;10.098;2023-04-07T00:56:55;8.27;;;3.63;;
43807;SDS011;29438;50.664;10.098;2023-04-07T00:59:21;9.50;;;3.75;;
43807;SDS011;29438;50.664;10.098;2023-04-07T01:01:48;9.05;;;3.80;;
43807;SDS011;29438;50.664;10.098;2023-04-07T01:07:28;9.27;;;3.75;;
43807;SDS011;29438;50.664;10.098;2023-04-07T01:10:10;8.88;;;3.78;;
43807;SDS011;29438;50.664;10.098;2023-04-07T01:12:43;9.60;;;3.97;;
43807;SDS011;29438;50.664;10.098;2023-04-07T01:15:16;8.88;;;3.78;;
43807;SDS011;29438;50.664;10.098;2023-04-07T01:17:47;9.40;;;3.88;;
43807;SDS011;29438;50.664;10.098;2023-04-07T01:20:17;8.68;;;3.70;;
43807;SDS011;29438;50.664;10.098;2023-04-07T01:22:48;10.82;;;4.35;;
43807;SDS011;29438;50.664;10.098;2023-04-07T01:30:33;8.38;;;3.70;;
43807;SDS011;29438;50.664;10.098;2023-04-07T01:33:02;8.82;;;4.10;;
43807;SDS011;29438;50.664;10.098;2023-04-07T01:35:31;9.07;;;3.70;;
43807;SDS011;29438;50.664;10.098;2023-04-07T01:37:58;8.02;;;3.40;;
43807;SDS011;29438;50.664;10.098;2023-04-07T01:40:26;11.77;;;4.20;;
43807;SDS011;29438;50.664;10.098;2023-04-07T01:42:52;7.82;;;3.88;;
43807;SDS011;29438;50.664;10.098;2023-04-07T01:45:20;8.65;;;3.55;;
43807;SDS011;29438;50.664;10.098;2023-04-07T01:47:46;8.27;;;3.95;;
43807;SDS011;29438;50.664;10.098;2023-04-07T01:50:13;10.13;;;3.92;;
43807;SDS011;29438;50.664;10.098;2023-04-07T01:52:40;9.88;;;4.07;;
43807;SDS011;29438;50.664;10.098;2023-04-07T01:55:06;9.75;;;3.95;;
43807;SDS011;29438;50.664;10.098;2023-04-07T01:57:33;9.40;;;4.25;;
43807;SDS011;29438;50.664;10.098;2023-04-07T01:59:59;10.27;;;4.00;;
43807;SDS011;29438;50.664;10.098;2023-04-07T02:02:24;9.60;;;4.07;;
43807;SDS011;29438;50.664;10.098;2023-04-07T02:04:53;12.02;;;4.18;;
43807;SDS011;29438;50.664;10.098;2023-04-07T02:07:22;9.15;;;4.03;;
43807;SDS011;29438;50.664;10.098;2023-04-07T02:09:55;12.27;;;4.47;;
43807;SDS011;29438;50.664;10.098;2023-04-07T02:12:25;10.48;;;3.97;;
43807;SDS011;29438;50.664;10.098;2023-04-07T02:14:53;8.50;;;3.85;;
43807;SDS011;29438;50.664;10.098;2023-04-07T02:17:20;10.23;;;4.03;;
43807;SDS011;29438;50.664;10.098;2023-04-07T02:19:48;9.48;;;4.15;;
43807;SDS011;29438;50.664;10.098;2023-04-07T02:22:15;10.18;;;4.10;;
43807;SDS011;29438;50.664;10.098;2023-04-07T02:24:42;8.68;;;4.10;;
43807;SDS011;29438;50.664;10.098;2023-04-07T02:27:07;10.95;;;4.63;;
43807;SDS011;29438;50.664;10.098;2023-04-07T02:29:33;12.50;;;4.82;;
43807;SDS011;29438;50.664;10.098;2023-04-07T02:31:58;12.35;;;5.65;;
43807;SDS011;29438;50.664;10.098;2023-04-07T02:34:24;11.57;;;5.47;;
43807;SDS011;29438;50.664;10.098;2023-04-07T02:36:49;13.40;;;5.53;;
43807;SDS011;29438;50.664;10.098;2023-04-07T02:39:15;12.75;;;4.75;;
43807;SDS011;29438;50.664;10.098;2023-04-07T02:41:40;13.25;;;6.03;;
43807;SDS011;29438;50.664;10.098;2023-04-07T02:44:06;13.90;;;5.45;;
43807;SDS011;29438;50.664;10.098;2023-04-07T02:46:31;12.95;;;5.55;;
43807;SDS011;29438;50.664;10.098;2023-04-07T02:48:57;10.93;;;4.80;;
43807;SDS011;29438;50.664;10.098;2023-04-07T02:51:22;11.13;;;5.28;;
43807;SDS011;29438;50.664;10.098;2023-04-07T02:53:48;12.85;;;4.85;;
43807;SDS011;29438;50.664;10.098;2023-04-07T02:56:14;10.95;;;5.00;;
43807;SDS011;29438;50.664;10.098;2023-04-07T02:58:40;12.02;;;5.45;;
43807;SDS011;29438;50.664;10.098;2023-04-07T03:01:05;12.35;;;5.00;;
43807;SDS011;29438;50.664;10.098;2023-04-07T03:03:31;12.48;;;4.82;;
43807;SDS011;29438;50.664;10.098;2023-04-07T03:05:56;10.95;;;4.88;;
43807;SDS011;29438;50.664;10.098;2023-04-07T03:08:22;12.38;;;5.15;;
43807;SDS011;29438;50.664;10.098;2023-04-07T03:10:47;10.88;;;5.03;;
43807;SDS011;29438;50.664;10.098;2023-04-07T03:13:13;12.30;;;5.35;;
43807;SDS011;29438;50.664;10.098;2023-04-07T03:15:40;12.57;;;4.78;;
43807;SDS011;29438;50.664;10.098;2023-04-07T03:18:07;11.85;;;5.35;;
43807;SDS011;29438;50.664;10.098;2023-04-07T03:20:32;14.77;;;6.00;;
43807;SDS011;29438;50.664;10.098;2023-04-07T03:22:58;11.48;;;5.45;;
43807;SDS011;29438;50.664;10.098;2023-04-07T03:25:24;13.30;;;5.93;;
43807;SDS011;29438;50.664;10.098;2023-04-07T03:27:51;13.75;;;5.88;;
43807;SDS011;29438;50.664;10.098;2023-04-07T03:30:16;16.17;;;6.28;;
43807;SDS011;29438;50.664;10.098;2023-04-07T03:32:42;12.15;;;5.90;;
43807;SDS011;29438;50.664;10.098;2023-04-07T03:35:08;12.52;;;5.65;;
43807;SDS011;29438;50.664;10.098;2023-04-07T03:37:33;12.75;;;5.57;;
43807;SDS011;29438;50.664;10.098;2023-04-07T03:39:59;14.98;;;6.10;;
43807;SDS011;29438;50.664;10.098;2023-04-07T03:42:25;14.93;;;6.25;;
43807;SDS011;29438;50.664;10.098;2023-04-07T03:44:50;15.43;;;6.47;;
43807;SDS011;29438;50.664;10.098;2023-04-07T03:47:16;14.32;;;6.57;;
43807;SDS011;29438;50.664;10.098;2023-04-07T03:49:41;15.23;;;5.82;;
43807;SDS011;29438;50.664;10.098;2023-04-07T03:52:07;13.23;;;5.78;;
43807;SDS011;29438;50.664;10.098;2023-04-07T03:54:32;12.73;;;6.07;;
43807;SDS011;29438;50.664;10.098;2023-04-07T03:56:59;15.57;;;6.03;;
43807;SDS011;29438;50.664;10.098;2023-04-07T03:59:26;13.07;;;5.65;;
43807;SDS011;29438;50.664;10.098;2023-04-07T04:01:51;12.32;;;5.35;;
43807;SDS011;29438;50.664;10.098;2023-04-07T04:04:17;14.30;;;5.80;;
43807;SDS011;29438;50.664;10.098;2023-04-07T04:06:42;13.63;;;5.53;;
43807;SDS011;29438;50.664;10.098;2023-04-07T04:09:08;12.68;;;5.05;;
43807;SDS011;29438;50.664;10.098;2023-04-07T04:11:34;14.77;;;5.97;;
43807;SDS011;29438;50.664;10.098;2023-04-07T04:14:00;12.25;;;5.53;;
43807;SDS011;29438;50.664;10.098;2023-04-07T04:16:26;14.52;;;6.28;;
43807;SDS011;29438;50.664;10.098;2023-04-07T04:18:51;12.82;;;6.13;;
43807;SDS011;29438;50.664;10.098;2023-04-07T04:21:16;13.20;;;5.78;;
43807;SDS011;29438;50.664;10.098;2023-04-07T04:23:42;13.63;;;5.47;;
43807;SDS011;29438;50.664;10.098;2023-04-07T04:26:08;13.68;;;5.70;;
43807;SDS011;29438;50.664;10.098;2023-04-07T04:28:33;12.15;;;5.68;;
43807;SDS011;29438;50.664;10.098;2023-04-07T04:30:59;12.15;;;6.18;;
43807;SDS011;29438;50.664;10.098;2023-04-07T04:33:24;14.48;;;6.05;;
43807;SDS011;29438;50.664;10.098;2023-04-07T04:35:50;13.75;;;6.38;;
43807;SDS011;29438;50.664;10.098;2023-04-07T04:38:15;14.68;;;5.80;;
43807;SDS011;29438;50.664;10.098;2023-04-07T04:40:41;16.42;;;6.45;;
43807;SDS011;29438;50.664;10.098;2023-04-07T04:43:06;12.95;;;6.25;;
43807;SDS011;29438;50.664;10.098;2023-04-07T04:45:33;14.15;;;5.93;;
43807;SDS011;29438;50.664;10.098;2023-04-07T04:47:59;15.32;;;6.45;;
43807;SDS011;29438;50.664;10.098;2023-04-07T04:50:25;15.27;;;6.75;;
43807;SDS011;29438;50.664;10.098;2023-04-07T04:52:50;14.35;;;6.65;;
43807;SDS011;29438;50.664;10.098;2023-04-07T04:55:16;17.25;;;6.88;;
43807;SDS011;29438;50.664;10.098;2023-04-07T04:57:41;15.18;;;6.88;;
43807;SDS011;29438;50.664;10.098;2023-04-07T05:00:07;15.27;;;6.25;;
43807;SDS011;29438;50.664;10.098;2023-04-07T05:02:33;14.93;;;6.75;;
43807;SDS011;29438;50.664;10.098;2023-04-07T05:05:00;14.05;;;6.50;;
43807;SDS011;29438;50.664;10.098;2023-04-07T05:07:25;15.00;;;6.93;;
43807;SDS011;29438;50.664;10.098;2023-04-07T05:09:51;15.20;;;6.47;;
43807;SDS011;29438;50.664;10.098;2023-04-07T05:12:16;15.32;;;6.97;;
43807;SDS011;29438;50.664;10.098;2023-04-07T05:14:42;15.75;;;6.55;;
43807;SDS011;29438;50.664;10.098;2023-04-07T05:17:07;15.27;;;6.57;;
43807;SDS011;29438;50.664;10.098;2023-04-07T05:19:33;15.43;;;6.75;;
43807;SDS011;29438;50.664;10.098;2023-04-07T05:21:58;17.13;;;7.18;;
43807;SDS011;29438;50.664;10.098;2023-04-07T05:24:27;13.50;;;6.70;;
43807;SDS011;29438;50.664;10.098;2023-04-07T05:26:53;15.80;;;7.13;;
43807;SDS011;29438;50.664;10.098;2023-04-07T05:29:20;16.05;;;6.85;;
43807;SDS011;29438;50.664;10.098;2023-04-07T05:31:45;17.25;;;7.70;;
43807;SDS011;29438;50.664;10.098;2023-04-07T05:34:11;15.23;;;6.65;;
43807;SDS011;29438;50.664;10.098;2023-04-07T05:36:36;16.13;;;7.03;;
43807;SDS011;29438;50.664;10.098;2023-04-07T05:39:02;13.95;;;7.20;;
43807;SDS011;29438;50.664;10.098;2023-04-07T05:41:27;15.48;;;6.95;;
43807;SDS011;29438;50.664;10.098;2023-04-07T05:43:53;14.40;;;6.95;;
43807;SDS011;29438;50.664;10.098;2023-04-07T05:46:18;13.80;;;7.13;;
43807;SDS011;29438;50.664;10.098;2023-04-07T05:48:44;15.25;;;7.25;;
43807;SDS011;29438;50.664;10.098;2023-04-07T05:51:09;16.10;;;7.28;;
43807;SDS011;29438;50.664;10.098;2023-04-07T05:53:35;15.98;;;7.25;;
43807;SDS011;29438;50.664;10.098;2023-04-07T05:56:00;16.63;;;7.25;;
43807;SDS011;29438;50.664;10.098;2023-04-07T05:58:26;15.00;;;7.10;;
43807;SDS011;29438;50.664;10.098;2023-04-07T06:00:52;16.75;;;7.28;;
43807;SDS011;29438;50.664;10.098;2023-04-07T06:03:17;15.35;;;7.22;;
43807;SDS011;29438;50.664;10.098;2023-04-07T06:05:44;14.15;;;7.30;;
43807;SDS011;29438;50.664;10.098;2023-04-07T06:08:10;16.58;;;7.03;;
43807;SDS011;29438;50.664;10.098;2023-04-07T06:10:36;15.93;;;7.38;;
43807;SDS011;29438;50.664;10.098;2023-04-07T06:13:01;14.38;;;7.60;;
43807;SDS011;29438;50.664;10.098;2023-04-07T06:15:27;14.23;;;6.75;;
43807;SDS011;29438;50.664;10.098;2023-04-07T06:17:52;14.70;;;7.25;;
43807;SDS011;29438;50.664;10.098;2023-04-07T06:20:18;17.67;;;7.93;;
43807;SDS011;29438;50.664;10.098;2023-04-07T06:22:46;17.45;;;8.15;;
43807;SDS011;29438;50.664;10.098;2023-04-07T06:25:12;16.02;;;7.65;;
43807;SDS011;29438;50.664;10.098;2023-04-07T06:27:38;16.80;;;7.68;;
43807;SDS011;29438;50.664;10.098;2023-04-07T06:30:03;17.52;;;7.78;;
43807;SDS011;29438;50.664;10.098;2023-04-07T06:32:29;15.00;;;7.60;;
43807;SDS011;29438;50.664;10.098;2023-04-07T06:34:55;16.98;;;8.05;;
43807;SDS011;29438;50.664;10.098;2023-04-07T06:37:21;18.35;;;7.65;;
43807;SDS011;29438;50.664;10.098;2023-04-07T06:39:48;18.67;;;8.45;;
43807;SDS011;29438;50.664;10.098;2023-04-07T06:42:14;17.30;;;7.95;;
43807;SDS011;29438;50.664;10.098;2023-04-07T06:44:40;19.00;;;8.20;;
43807;SDS011;29438;50.664;10.098;2023-04-07T06:47:05;18.33;;;8.23;;
43807;SDS011;29438;50.664;10.098;2023-04-07T06:49:31;19.38;;;8.10;;
43807;SDS011;29438;50.664;10.098;2023-04-07T06:51:56;18.00;;;8.38;;
43807;SDS011;29438;50.664;10.098;2023-04-07T06:54:22;19.42;;;8.50;;
43807;SDS011;29438;50.664;10.098;2023-04-07T06:56:47;20.55;;;9.02;;
43807;SDS011;29438;50.664;10.098;2023-04-07T06:59:13;18.08;;;8.15;;
43807;SDS011;29438;50.664;10.098;2023-04-07T07:01:38;20.27;;;8.52;;
43807;SDS011;29438;50.664;10.098;2023-04-07T07:04:04;21.13;;;9.13;;
43807;SDS011;29438;50.664;10.098;2023-04-07T07:06:30;18.45;;;8.95;;
43807;SDS011;29438;50.664;10.098;2023-04-07T07:08:56;18.23;;;8.27;;
43807;SDS011;29438;50.664;10.098;2023-04-07T07:11:22;17.55;;;8.45;;
43807;SDS011;29438;50.664;10.098;2023-04-07T07:13:47;17.52;;;8.02;;
43807;SDS011;29438;50.664;10.098;2023-04-07T07:16:13;20.25;;;8.88;;
43807;SDS011;29438;50.664;10.098;2023-04-07T07:18:38;18.42;;;8.93;;
43807;SDS011;29438;50.664;10.098;2023-04-07T07:21:04;18.60;;;8.63;;
43807;SDS011;29438;50.664;10.098;2023-04-07T07:23:30;16.52;;;8.05;;
43807;SDS011;29438;50.664;10.098;2023-04-07T07:25:55;17.88;;;8.80;;
43807;SDS011;29438;50.664;10.098;2023-04-07T07:28:21;17.52;;;8.43;;
43807;SDS011;29438;50.664;10.098;2023-04-07T07:30:47;19.77;;;8.15;;
43807;SDS011;29438;50.664;10.098;2023-04-07T07:33:13;19.05;;;8.77;;
43807;SDS011;29438;50.664;10.098;2023-04-07T07:35:38;19.38;;;8.63;;
43807;SDS011;29438;50.664;10.098;2023-04-07T07:38:04;18.95;;;8.68;;
43807;SDS011;29438;50.664;10.098;2023-04-07T07:40:30;19.60;;;8.70;;
43807;SDS011;29438;50.664;10.098;2023-04-07T07:42:55;19.63;;;8.10;;
43807;SDS011;29438;50.664;10.098;2023-04-07T07:45:21;21.35;;;9.75;;
43807;SDS011;29438;50.664;10.098;2023-04-07T07:47:46;18.95;;;8.75;;
43807;SDS011;29438;50.664;10.098;2023-04-07T07:50:12;17.02;;;8.50;;
43807;SDS011;29438;50.664;10.098;2023-04-07T07:52:37;18.27;;;8.38;;
43807;SDS011;29438;50.664;10.098;2023-04-07T07:55:03;18.15;;;8.75;;
43807;SDS011;29438;50.664;10.098;2023-04-07T07:57:29;15.45;;;8.27;;
43807;SDS011;29438;50.664;10.098;2023-04-07T07:59:57;15.10;;;7.78;;
43807;SDS011;29438;50.664;10.098;2023-04-07T08:02:23;14.13;;;7.68;;
43807;SDS011;29438;50.664;10.098;2023-04-07T08:04:54;15.00;;;8.38;;
43807;SDS011;29438;50.664;10.098;2023-04-07T08:07:20;12.82;;;7.25;;
43807;SDS011;29438;50.664;10.098;2023-04-07T08:09:46;16.10;;;8.45;;
43807;SDS011;29438;50.664;10.098;2023-04-07T08:12:11;15.07;;;8.27;;
43807;SDS011;29438;50.664;10.098;2023-04-07T08:14:37;16.48;;;8.75;;
43807;SDS011;29438;50.664;10.098;2023-04-07T08:17:02;14.45;;;8.52;;
43807;SDS011;29438;50.664;10.098;2023-04-07T08:19:28;15.23;;;8.55;;
43807;SDS011;29438;50.664;10.098;2023-04-07T08:21:54;14.82;;;8.07;;
43807;SDS011;29438;50.664;10.098;2023-04-07T08:24:19;15.05;;;8.55;;
43807;SDS011;29438;50.664;10.098;2023-04-07T08:26:45;12.57;;;8.15;;
43807;SDS011;29438;50.664;10.098;2023-04-07T08:29:10;13.60;;;7.90;;
43807;SDS011;29438;50.664;10.098;2023-04-07T08:31:36;14.88;;;8.73;;
43807;SDS011;29438;50.664;10.098;2023-04-07T08:34:02;14.88;;;7.95;;
43807;SDS011;29438;50.664;10.098;2023-04-07T08:36:27;13.43;;;7.70;;
43807;SDS011;29438;50.664;10.098;2023-04-07T08:38:54;13.70;;;8.05;;
43807;SDS011;29438;50.664;10.098;2023-04-07T08:41:38;12.82;;;7.45;;
43807;SDS011;29438;50.664;10.098;2023-04-07T08:44:08;13.68;;;7.70;;
43807;SDS011;29438;50.664;10.098;2023-04-07T08:46:34;13.68;;;7.78;;
43807;SDS011;29438;50.664;10.098;2023-04-07T08:49:03;11.98;;;7.70;;
43807;SDS011;29438;50.664;10.098;2023-04-07T08:51:33;13.38;;;8.27;;
43807;SDS011;29438;50.664;10.098;2023-04-07T08:56:37;13.82;;;8.48;;
43807;SDS011;29438;50.664;10.098;2023-04-07T08:59:07;13.07;;;7.30;;
43807;SDS011;29438;50.664;10.098;2023-04-07T09:01:37;13.57;;;8.10;;
43807;SDS011;29438;50.664;10.098;2023-04-07T09:04:04;13.35;;;8.13;;
43807;SDS011;29438;50.664;10.098;2023-04-07T09:06:32;15.88;;;8.07;;
43807;SDS011;29438;50.664;10.098;2023-04-07T09:08:58;14.32;;;8.02;;
43807;SDS011;29438;50.664;10.098;2023-04-07T09:11:28;14.77;;;8.13;;
43807;SDS011;29438;50.664;10.098;2023-04-07T09:13:54;14.32;;;8.38;;
43807;SDS011;29438;50.664;10.098;2023-04-07T09:16:20;13.77;;;8.27;;
43807;SDS011;29438;50.664;10.098;2023-04-07T09:18:47;14.52;;;8.23;;
43807;SDS011;29438;50.664;10.098;2023-04-07T09:21:13;15.40;;;7.57;;
43807;SDS011;29438;50.664;10.098;2023-04-07T09:23:40;14.65;;;8.05;;
43807;SDS011;29438;50.664;10.098;2023-04-07T09:26:22;14.88;;;8.63;;
43807;SDS011;29438;50.664;10.098;2023-04-07T09:28:53;14.68;;;7.95;;
43807;SDS011;29438;50.664;10.098;2023-04-07T09:31:20;13.35;;;7.60;;
43807;SDS011;29438;50.664;10.098;2023-04-07T09:33:47;13.07;;;7.85;;
43807;SDS011;29438;50.664;10.098;2023-04-07T09:36:13;12.65;;;7.78;;
43807;SDS011;29438;50.664;10.098;2023-04-07T09:38:39;13.07;;;7.80;;
43807;SDS011;29438;50.664;10.098;2023-04-07T09:41:06;13.60;;;7.95;;
43807;SDS011;29438;50.664;10.098;2023-04-07T09:43:34;15.50;;;8.30;;
43807;SDS011;29438;50.664;10.098;2023-04-07T09:46:08;13.57;;;7.95;;
43807;SDS011;29438;50.664;10.098;2023-04-07T09:48:34;14.43;;;8.20;;
43807;SDS011;29438;50.664;10.098;2023-04-07T09:51:04;14.60;;;7.53;;
43807;SDS011;29438;50.664;10.098;2023-04-07T09:53:46;14.13;;;7.63;;
43807;SDS011;29438;50.664;10.098;2023-04-07T09:56:16;14.02;;;8.20;;
43807;SDS011;29438;50.664;10.098;2023-04-07T09:58:46;14.60;;;7.63;;
43807;SDS011;29438;50.664;10.098;2023-04-07T10:01:13;12.27;;;6.82;;
43807;SDS011;29438;50.664;10.098;2023-04-07T10:03:41;13.95;;;7.80;;
43807;SDS011;29438;50.664;10.098;2023-04-07T10:06:07;13.40;;;7.57;;
43807;SDS011;29438;50.664;10.098;2023-04-07T10:08:35;15.52;;;7.90;;
43807;SDS011;29438;50.664;10.098;2023-04-07T10:11:02;14.75;;;8.02;;
43807;SDS011;29438;50.664;10.098;2023-04-07T10:13:29;13.38;;;7.47;;
43807;SDS011;29438;50.664;10.098;2023-04-07T10:15:56;14.43;;;7.82;;
43807;SDS011;29438;50.664;10.098;2023-04-07T10:18:24;14.77;;;7.50;;
43807;SDS011;29438;50.664;10.098;2023-04-07T10:20:54;14.20;;;7.78;;
43807;SDS011;29438;50.664;10.098;2023-04-07T10:23:22;15.23;;;8.23;;
43807;SDS011;29438;50.664;10.098;2023-04-07T10:25:52;13.80;;;7.45;;
43807;SDS011;29438;50.664;10.098;2023-04-07T10:28:20;14.15;;;8.20;;
43807;SDS011;29438;50.664;10.098;2023-04-07T10:30:50;13.20;;;7.75;;
43807;SDS011;29438;50.664;10.098;2023-04-07T10:33:16;14.57;;;8.15;;
43807;SDS011;29438;50.664;10.098;2023-04-07T10:38:27;13.70;;;7.97;;
43807;SDS011;29438;50.664;10.098;2023-04-07T10:40:53;14.13;;;8.30;;
43807;SDS011;29438;50.664;10.098;2023-04-07T10:46:04;12.88;;;8.05;;
43807;SDS011;29438;50.664;10.098;2023-04-07T10:48:30;13.43;;;7.65;;
43807;SDS011;29438;50.664;10.098;2023-04-07T10:53:29;11.95;;;7.72;;
43807;SDS011;29438;50.664;10.098;2023-04-07T10:55:55;13.02;;;7.35;;
43807;SDS011;29438;50.664;10.098;2023-04-07T11:03:21;13.00;;;7.88;;
43807;SDS011;29438;50.664;10.098;2023-04-07T11:05:48;13.73;;;7.97;;
43807;SDS011;29438;50.664;10.098;2023-04-07T11:08:13;12.23;;;7.38;;
43807;SDS011;29438;50.664;10.098;2023-04-07T11:10:39;13.15;;;7.18;;
43807;SDS011;29438;50.664;10.098;2023-04-07T11:13:11;13.18;;;7.65;;
43807;SDS011;29438;50.664;10.098;2023-04-07T11:15:36;13.18;;;7.63;;
43807;SDS011;29438;50.664;10.098;2023-04-07T11:18:16;12.40;;;7.30;;
43807;SDS011;29438;50.664;10.098;2023-04-07T11:20:50;13.10;;;7.57;;
43807;SDS011;29438;50.664;10.098;2023-04-07T11:23:21;12.52;;;7.25;;
43807;SDS011;29438;50.664;10.098;2023-04-07T11:25:49;11.98;;;7.25;;
43807;SDS011;29438;50.664;10.098;2023-04-07T11:28:16;12.57;;;7.65;;
43807;SDS011;29438;50.664;10.098;2023-04-07T11:30:47;13.35;;;7.40;;
43807;SDS011;29438;50.664;10.098;2023-04-07T11:33:20;13.20;;;7.72;;
43807;SDS011;29438;50.664;10.098;2023-04-07T11:35:51;13.43;;;7.53;;
43807;SDS011;29438;50.664;10.098;2023-04-07T11:38:24;13.55;;;7.82;;
43807;SDS011;29438;50.664;10.098;2023-04-07T11:40:51;13.30;;;7.43;;
43807;SDS011;29438;50.664;10.098;2023-04-07T11:43:22;14.02;;;7.80;;
43807;SDS011;29438;50.664;10.098;2023-04-07T11:46:02;14.55;;;8.07;;
43807;SDS011;29438;50.664;10.098;2023-04-07T11:48:28;12.35;;;7.22;;
43807;SDS011;29438;50.664;10.098;2023-04-07T11:50:55;13.40;;;7.68;;
43807;SDS011;29438;50.664;10.098;2023-04-07T11:53:27;12.85;;;7.70;;
43807;SDS011;29438;50.664;10.098;2023-04-07T11:56:00;13.32;;;7.97;;
43807;SDS011;29438;50.664;10.098;2023-04-07T11:58:27;11.73;;;7.07;;
43807;SDS011;29438;50.664;10.098;2023-04-07T12:00:56;12.50;;;7.70;;
43807;SDS011;29438;50.664;10.098;2023-04-07T12:03:22;11.70;;;7.65;;
43807;SDS011;29438;50.664;10.098;2023-04-07T12:05:48;11.70;;;6.75;;
43807;SDS011;29438;50.664;10.098;2023-04-07T12:08:14;11.20;;;6.75;;
43807;SDS011;29438;50.664;10.098;2023-04-07T12:10:40;13.45;;;7.35;;
43807;SDS011;29438;50.664;10.098;2023-04-07T12:13:07;11.73;;;7.15;;
43807;SDS011;29438;50.664;10.098;2023-04-07T12:15:33;11.93;;;7.40;;
43807;SDS011;29438;50.664;10.098;2023-04-07T12:18:01;13.40;;;7.22;;
43807;SDS011;29438;50.664;10.098;2023-04-07T12:20:27;14.43;;;8.10;;
43807;SDS011;29438;50.664;10.098;2023-04-07T12:22:53;13.75;;;7.88;;
43807;SDS011;29438;50.664;10.098;2023-04-07T12:25:19;14.45;;;7.60;;
43807;SDS011;29438;50.664;10.098;2023-04-07T12:27:44;12.68;;;7.07;;
43807;SDS011;29438;50.664;10.098;2023-04-07T12:30:10;14.25;;;7.40;;
43807;SDS011;29438;50.664;10.098;2023-04-07T12:32:37;14.63;;;7.20;;
43807;SDS011;29438;50.664;10.098;2023-04-07T12:35:02;13.05;;;7.00;;
43807;SDS011;29438;50.664;10.098;2023-04-07T12:37:29;11.32;;;6.78;;
43807;SDS011;29438;50.664;10.098;2023-04-07T12:39:55;14.25;;;7.10;;
43807;SDS011;29438;50.664;10.098;2023-04-07T12:42:21;13.35;;;7.40;;
43807;SDS011;29438;50.664;10.098;2023-04-07T12:44:46;13.10;;;7.53;;
43807;SDS011;29438;50.664;10.098;2023-04-07T12:47:12;13.45;;;7.38;;
43807;SDS011;29438;50.664;10.098;2023-04-07T12:49:38;13.27;;;7.22;;
43807;SDS011;29438;50.664;10.098;2023-04-07T12:52:03;12.25;;;6.78;;
43807;SDS011;29438;50.664;10.098;2023-04-07T12:54:30;14.57;;;6.55;;
43807;SDS011;29438;50.664;10.098;2023-04-07T12:56:56;11.60;;;6.40;;
43807;SDS011;29438;50.664;10.098;2023-04-07T12:59:25;11.15;;;6.47;;
43807;SDS011;29438;50.664;10.098;2023-04-07T13:01:50;13.32;;;6.75;;
43807;SDS011;29438;50.664;10.098;2023-04-07T13:04:16;11.82;;;6.68;;
43807;SDS011;29438;50.664;10.098;2023-04-07T13:06:42;11.65;;;6.63;;
43807;SDS011;29438;50.664;10.098;2023-04-07T13:09:07;14.40;;;7.30;;
43807;SDS011;29438;50.664;10.098;2023-04-07T13:11:33;12.45;;;6.50;;
43807;SDS011;29438;50.664;10.098;2023-04-07T13:14:00;11.88;;;6.50;;
43807;SDS011;29438;50.664;10.098;2023-04-07T13:16:25;12.82;;;6.38;;
43807;SDS011;29438;50.664;10.098;2023-04-07T13:18:51;10.85;;;6.13;;
43807;SDS011;29438;50.664;10.098;2023-04-07T13:21:17;11.35;;;6.22;;
43807;SDS011;29438;50.664;10.098;2023-04-07T13:23:43;9.88;;;6.07;;
43807;SDS011;29438;50.664;10.098;2023-04-07T13:26:08;11.10;;;6.13;;
43807;SDS011;29438;50.664;10.098;2023-04-07T13:28:33;10.35;;;6.32;;
43807;SDS011;29438;50.664;10.098;2023-04-07T13:30:59;11.30;;;6.65;;
43807;SDS011;29438;50.664;10.098;2023-04-07T13:33:25;10.38;;;6.35;;
43807;SDS011;29438;50.664;10.098;2023-04-07T13:35:50;11.38;;;6.13;;
43807;SDS011;29438;50.664;10.098;2023-04-07T13:38:15;11.60;;;6.22;;
43807;SDS011;29438;50.664;10.098;2023-04-07T13:40:41;11.95;;;6.72;;
43807;SDS011;29438;50.664;10.098;2023-04-07T13:43:08;10.48;;;6.20;;
43807;SDS011;29438;50.664;10.098;2023-04-07T13:45:36;11.00;;;6.75;;
43807;SDS011;29438;50.664;10.098;2023-04-07T13:48:01;13.40;;;7.00;;
43807;SDS011;29438;50.664;10.098;2023-04-07T13:50:27;11.23;;;6.40;;
43807;SDS011;29438;50.664;10.098;2023-04-07T13:52:53;12.32;;;7.15;;
43807;SDS011;29438;50.664;10.098;2023-04-07T13:55:18;11.30;;;6.30;;
43807;SDS011;29438;50.664;10.098;2023-04-07T13:57:44;11.70;;;6.90;;
43807;SDS011;29438;50.664;10.098;2023-04-07T14:00:10;12.65;;;6.95;;
43807;SDS011;29438;50.664;10.098;2023-04-07T14:02:36;10.80;;;6.60;;
43807;SDS011;29438;50.664;10.098;2023-04-07T14:05:02;11.43;;;6.63;;
43807;SDS011;29438;50.664;10.098;2023-04-07T14:07:28;11.55;;;6.35;;
43807;SDS011;29438;50.664;10.098;2023-04-07T14:09:53;12.93;;;6.38;;
43807;SDS011;29438;50.664;10.098;2023-04-07T14:12:19;10.93;;;6.07;;
43807;SDS011;29438;50.664;10.098;2023-04-07T14:14:46;11.32;;;6.40;;
43807;SDS011;29438;50.664;10.098;2023-04-07T14:17:14;12.80;;;6.60;;
43807;SDS011;29438;50.664;10.098;2023-04-07T14:19:39;11.80;;;6.85;;
43807;SDS011;29438;50.664;10.098;2023-04-07T14:22:05;11.52;;;5.78;;
43807;SDS011;29438;50.664;10.098;2023-04-07T14:24:30;10.00;;;5.80;;
43807;SDS011;29438;50.664;10.098;2023-04-07T14:26:56;12.05;;;7.28;;
43807;SDS011;29438;50.664;10.098;2023-04-07T14:29:21;10.63;;;6.05;;
43807;SDS011;29438;50.664;10.098;2023-04-07T14:31:47;10.90;;;6.25;;
43807;SDS011;29438;50.664;10.098;2023-04-07T14:34:13;13.55;;;6.82;;
43807;SDS011;29438;50.664;10.098;2023-04-07T14:36:38;11.45;;;6.53;;
43807;SDS011;29438;50.664;10.098;2023-04-07T14:39:04;11.40;;;6.15;;
43807;SDS011;29438;50.664;10.098;2023-04-07T14:41:30;10.35;;;6.22;;
43807;SDS011;29438;50.664;10.098;2023-04-07T14:43:55;11.95;;;7.13;;